Etusivu
METAR-TAF:

METAR-TAF

Lentoasemat :

Ciudad Juárez, Meksiko

Leveyspiiri: 31-38N, Pituuspiiri: 106-26W, korkeus merenpinnasta: 1171 m

Tämänhetkinen sää

Tämä raportti tehtiin 4 tuntia ja 14 minuuttia sitten, kello 03.40 UTC
Tuuli 6 kn idästä/koillisesta
Lämpötila 32°C
Kosteus 20%
Ilmanpaine 1021 hPa
Näkyvyys: 16.1 km
selkeää

METAR: MMCS 140340Z 06006KT 10SM SKC 32/06 A3016

Aika: 01:54 (07:54 UTC)

Sääennuste

Tämä raportti tehtiin 3 tuntia ja 11 minuuttia sitten, kello 04.43 UTC
Ennuste voimassa 14. päivästä klo 06 UTC - 15. päivään klo 06 UTC
Tuuli 5 kn idästä/koillisesta
Näkyvyys: 10 km
Hajanaisia pilviä 25000 ft:n korkeudessa
From 14. päivästä klo 1700 UTC
Tuuli 15 kn etelästä/kaakosta
Näkyvyys: 10 km
Hajanaisia pilviä 25000 ft:n korkeudessa
From 15. päivästä klo 0200 UTC
Tuuli 5 kn etelästä/kaakosta
Näkyvyys: 10 km
Hajanaisia pilviä 25000 ft:n korkeudessa

TAF: MMCS 140443Z 1406/1506 06005KT P6SM SCT250 FM141700 16015KT P6SM SCT250 FM150200 16005KT P6SM SCT250

Säähavainnot ja -ennusteet yli 4000 lentoasemalta (METAR- ja TAF-raportit).

Käytössä olevat sääasemat on merkitty karttaan keltaisilla ja punaisilla pisteillä.

Aseta hiiri pisteen päälle nähdäksesi sääaseman nimen.

Klikkaa sitten nähdäksesi säähavainnot ja -ennusteet.

Kartan vaihtaminen: klikkaa mustalla rastilla varustettuja vihreitä pisteitä, niin voit zoomata sisään; viivalla varustettua vihreää pistettä, niin voit zoomata ulos tai vihreitä nuolia, niin pääset viereisille kartoille.


METAR-TAF: